< < Back
Terminal Aerodrome Forecast


Current Version              Previous Versions:   1  2  3  4  5  6  7  8  9  

Terminal Aerodrome Forecast

420
FTUS42 KGSP 272323
TAFAND
TAF
KAND 272323Z 2800/2824 14004KT P6SM FEW050
     FM280400 13003KT P6SM FEW250
     FM281700 09006KT P6SM FEW060 SCT150=

Latest METAR

238
SAUS70 KWBC 280600 RRC
MTRAND
METAR KAND 280556Z AUTO 16005KT 10SM BKN070 22/15 A3011 RMK AO2 SLP187
T02170150 10261 20217 50004


USA.gov is the U.S. government's official web portal to all federal, state and local government web resources and services.